Time;durP1;ratioP1;P1;durP2;ratioP2;P2;SDS_P1;SDS_P2;PMS_P1;PMS_P2;Temp;Humidity;BMP_temperature;BMP_pressure;BME280_temperature;BME280_humidity;BME280_pressure;Samples;Min_cycle;Max_cycle;Signal;HPM_P1;HPM_P2
2021/12/04 00:00:15;;;;;;;22.43;17.30;;;;;;;9.52;83.23;99585.75;5037086;28;20425;-59
2021/12/04 00:02:40;;;;;;;20.47;18.07;;;;;;;6.97;78.88;99594.22;5034281;28;20224;-70
2021/12/04 00:05:07;;;;;;;22.70;18.60;;;;;;;5.87;82.97;99601.09;5037320;28;20166;-71
2021/12/04 00:07:34;;;;;;;19.57;17.27;;;;;;;5.05;85.82;99589.78;5037485;28;20178;-71
2021/12/04 00:10:03;;;;;;;22.70;19.27;;;;;;;5.19;86.68;99609.75;5037670;28;20420;-71
2021/12/04 00:12:30;;;;;;;24.33;20.53;;;;;;;5.09;87.28;99592.38;5037641;28;20421;-70
2021/12/04 00:14:56;;;;;;;24.80;20.13;;;;;;;5.42;85.25;99588.50;5032453;28;20523;-70
2021/12/04 00:17:21;;;;;;;26.20;20.63;;;;;;;5.13;86.04;99594.16;5024821;28;20845;-71
2021/12/04 00:19:46;;;;;;;22.93;19.10;;;;;;;5.22;86.77;99592.59;5036450;28;20536;-71
2021/12/04 00:22:12;;;;;;;25.57;19.97;;;;;;;5.20;87.57;99591.69;5025641;28;20173;-71
2021/12/04 00:24:37;;;;;;;22.83;19.10;;;;;;;5.40;87.38;99585.91;5036708;28;20197;-71
2021/12/04 00:27:02;;;;;;;25.43;20.23;;;;;;;5.59;87.63;99580.94;5028045;28;20201;-71
2021/12/04 00:29:28;;;;;;;28.57;23.37;;;;;;;5.38;85.25;99582.44;5026554;28;20543;-69
2021/12/04 00:32:02;;;;;;;24.80;21.50;;;;;;;5.43;85.22;99579.91;5037427;28;20186;-70
2021/12/04 00:34:29;;;;;;;26.03;20.50;;;;;;;5.19;85.50;99589.09;5020448;28;20276;-71
2021/12/04 00:37:17;;;;;;;25.50;20.30;;;;;;;5.24;86.58;99600.34;5035997;28;20419;-70
2021/12/04 00:50:58;;;;;;;27.60;22.07;;;;;;;5.13;86.41;99589.00;5041181;28;20420;-70
2021/12/04 00:53:23;;;;;;;28.90;22.23;;;;;;;5.42;85.95;99586.78;5040642;28;20726;-70
2021/12/04 00:55:49;;;;;;;30.43;21.20;;;;;;;5.31;85.41;99591.81;5040941;28;20233;-70
2021/12/04 00:58:14;;;;;;;26.63;21.03;;;;;;;5.28;86.37;99603.88;5040561;28;20609;-70
2021/12/04 01:00:41;;;;;;;27.57;21.10;;;;;;;5.52;85.99;99591.22;5040951;28;20193;-69
2021/12/04 01:03:07;;;;;;;30.03;23.63;;;;;;;5.64;84.97;99598.25;5040310;28;20234;-70
2021/12/04 01:05:33;;;;;;;49.57;32.73;;;;;;;5.46;85.26;99587.69;5040516;28;20706;-69
2021/12/04 01:07:58;;;;;;;27.90;22.17;;;;;;;5.29;85.48;99588.38;5040702;28;20658;-69
2021/12/04 01:10:23;;;;;;;32.17;23.47;;;;;;;5.49;85.85;99580.81;5034709;28;20182;-69
2021/12/04 01:12:50;;;;;;;30.70;22.20;;;;;;;5.33;86.68;99582.38;5040293;28;20174;-72
2021/12/04 01:15:15;;;;;;;28.93;22.00;;;;;;;5.23;86.39;99588.28;5040921;28;20236;-71
2021/12/04 01:17:40;;;;;;;29.70;23.17;;;;;;;5.54;85.21;99588.66;5039959;28;20475;-70
2021/12/04 01:20:06;;;;;;;39.93;30.00;;;;;;;5.44;84.55;99597.13;5029317;28;20190;-71
2021/12/04 01:22:33;;;;;;;28.07;20.90;;;;;;;5.69;84.61;99598.31;5020811;28;20179;-71
2021/12/04 01:24:59;;;;;;;29.50;22.03;;;;;;;5.65;86.24;99593.94;5020623;28;20182;-70
2021/12/04 01:27:24;;;;;;;28.70;21.90;;;;;;;5.25;85.97;99601.22;5028341;28;20426;-71
2021/12/04 01:29:50;;;;;;;28.40;21.00;;;;;;;5.32;85.25;99600.47;5033180;28;20450;-71
2021/12/04 01:32:15;;;;;;;31.53;23.47;;;;;;;5.67;83.82;99598.28;5020132;28;20174;-70
2021/12/04 01:34:40;;;;;;;29.07;21.20;;;;;;;5.53;84.40;99594.66;5020118;28;20227;-70
2021/12/04 01:37:06;;;;;;;28.80;21.50;;;;;;;5.47;85.25;99599.78;5007909;28;20198;-71
2021/12/04 01:39:31;;;;;;;30.90;22.53;;;;;;;5.48;84.47;99598.91;5035062;28;20178;-71
2021/12/04 01:41:57;;;;;;;26.23;21.07;;;;;;;5.39;84.88;99597.94;5020166;28;20428;-70
2021/12/04 01:44:22;;;;;;;27.07;19.93;;;;;;;5.50;84.22;99599.81;5003356;28;20195;-71
2021/12/04 01:46:48;;;;;;;26.57;19.90;;;;;;;5.64;83.66;99595.69;5022138;28;20544;-70
2021/12/04 01:49:13;;;;;;;25.33;19.57;;;;;;;5.72;83.02;99603.50;5039962;28;20538;-70
2021/12/04 01:51:39;;;;;;;24.70;19.90;;;;;;;5.66;83.34;99603.44;5039874;28;20192;-71
2021/12/04 01:54:04;;;;;;;24.73;19.77;;;;;;;5.79;82.68;99601.84;5039448;28;20230;-71
2021/12/04 01:56:31;;;;;;;25.07;20.07;;;;;;;5.55;84.04;99605.91;5038824;28;20544;-70
2021/12/04 01:58:56;;;;;;;24.30;18.83;;;;;;;5.82;83.12;99607.03;5043431;28;20194;-70
2021/12/04 02:01:22;;;;;;;24.30;19.93;;;;;;;5.60;82.85;99603.38;5040642;28;20421;-70
2021/12/04 02:03:48;;;;;;;22.80;18.83;;;;;;;5.54;85.39;99596.41;5039410;28;20206;-69
2021/12/04 02:06:13;;;;;;;24.67;19.67;;;;;;;5.70;84.46;99600.91;5034185;28;20440;-71
2021/12/04 02:08:38;;;;;;;25.13;18.30;;;;;;;5.44;84.71;99604.91;5031973;28;20186;-71
2021/12/04 02:11:04;;;;;;;25.40;19.97;;;;;;;5.60;84.95;99605.94;5022130;28;20492;-71
2021/12/04 02:13:29;;;;;;;24.97;19.43;;;;;;;5.26;85.21;99611.56;5039717;28;20178;-71
2021/12/04 02:15:55;;;;;;;26.63;20.07;;;;;;;5.76;84.71;99607.00;5019176;28;20588;-71
2021/12/04 02:18:21;;;;;;;26.67;20.57;;;;;;;5.59;84.61;99604.22;5025715;28;20186;-70
2021/12/04 02:20:48;;;;;;;25.90;19.30;;;;;;;5.74;83.93;99602.66;5039482;28;20829;-70
2021/12/04 02:23:13;;;;;;;24.30;18.70;;;;;;;4.95;85.91;99603.44;5039019;28;20395;-72
2021/12/04 02:25:39;;;;;;;41.43;29.00;;;;;;;5.29;85.86;99596.13;5039363;28;20454;-71
2021/12/04 02:28:06;;;;;;;33.70;25.80;;;;;;;5.46;84.35;99585.13;5039472;28;20170;-70
2021/12/04 02:30:35;;;;;;;25.50;19.50;;;;;;;5.28;85.59;99585.78;5035275;28;20182;-71
2021/12/04 02:33:10;;;;;;;34.60;22.60;;;;;;;5.68;83.70;99589.69;5038807;28;20773;-71
2021/12/04 02:35:36;;;;;;;27.10;19.27;;;;;;;5.17;86.38;99586.50;5039038;28;20464;-71
2021/12/04 02:38:01;;;;;;;40.77;29.93;;;;;;;5.68;84.45;99592.28;5031644;28;20496;-72
2021/12/04 02:40:26;;;;;;;25.57;19.80;;;;;;;5.46;85.67;99582.53;5039403;28;20491;-71
2021/12/04 02:42:52;;;;;;;28.30;20.50;;;;;;;5.83;85.34;99585.50;5038614;28;20265;-70
2021/12/04 02:45:18;;;;;;;31.17;23.07;;;;;;;5.42;85.33;99584.19;5038742;28;20537;-70
2021/12/04 02:47:43;;;;;;;28.83;21.80;;;;;;;5.26;85.76;99587.44;5035841;28;20587;-71
2021/12/04 02:50:11;;;;;;;29.47;22.67;;;;;;;5.65;84.46;99584.47;5035710;28;20269;-70
2021/12/04 02:52:37;;;;;;;26.53;19.63;;;;;;;5.24;85.87;99579.69;5019897;28;20214;-70
2021/12/04 02:55:03;;;;;;;29.93;22.80;;;;;;;5.32;84.59;99582.38;5038319;28;20523;-70
2021/12/04 02:57:29;;;;;;;31.33;21.60;;;;;;;5.43;84.57;99572.16;5038156;28;20430;-70
2021/12/04 02:59:56;;;;;;;31.50;23.97;;;;;;;5.56;85.05;99579.19;5038407;28;20707;-71
2021/12/04 03:02:22;;;;;;;28.83;22.40;;;;;;;5.54;85.13;99581.75;5035720;28;20511;-71
2021/12/04 03:04:51;;;;;;;29.07;23.00;;;;;;;5.49;84.95;99585.16;5018912;28;20187;-71
2021/12/04 03:07:17;;;;;;;26.97;21.50;;;;;;;5.56;84.50;99579.19;5002387;28;20444;-71
2021/12/04 03:09:43;;;;;;;34.90;24.00;;;;;;;5.38;85.37;99582.44;5029375;28;20411;-71
2021/12/04 03:12:09;;;;;;;30.20;22.07;;;;;;;5.51;85.08;99580.88;5037799;28;20402;-70
2021/12/04 03:14:35;;;;;;;33.23;23.20;;;;;;;5.70;86.32;99567.28;5001872;28;20244;-70
2021/12/04 03:17:00;;;;;;;32.53;24.07;;;;;;;5.63;84.89;99569.78;5014506;28;20403;-70
2021/12/04 03:19:27;;;;;;;31.50;22.40;;;;;;;5.59;84.84;99568.91;5038565;28;20841;-70
2021/12/04 03:21:52;;;;;;;33.53;24.97;;;;;;;5.72;83.54;99559.53;5030872;28;20174;-69
2021/12/04 03:24:19;;;;;;;30.13;22.43;;;;;;;5.70;84.33;99563.84;5029711;28;20415;-71
2021/12/04 03:26:47;;;;;;;34.63;25.17;;;;;;;5.71;83.35;99550.03;5045993;28;20424;-70
2021/12/04 03:29:18;;;;;;;36.70;24.70;;;;;;;6.09;81.78;99552.16;5039034;28;20703;-70
2021/12/04 03:32:04;;;;;;;38.53;26.00;;;;;;;6.00;82.29;99549.50;5021393;28;20421;-70
2021/12/04 03:40:21;;;;;;;32.97;25.23;;;;;;;5.61;83.99;99555.97;5038218;28;20443;-70
2021/12/04 03:42:47;;;;;;;34.03;25.13;;;;;;;5.72;82.85;99544.91;5033918;28;20426;-70
2021/12/04 03:45:13;;;;;;;47.73;33.50;;;;;;;6.03;81.71;99552.97;5019021;28;20419;-70
2021/12/04 03:47:42;;;;;;;35.03;25.80;;;;;;;5.79;82.48;99544.94;5001454;28;20262;-71
2021/12/04 03:50:08;;;;;;;35.20;26.73;;;;;;;5.89;82.30;99541.59;5033727;28;20444;-70
2021/12/04 03:52:36;;;;;;;34.90;26.63;;;;;;;5.61;82.78;99541.31;5036719;28;20444;-70
2021/12/04 03:55:05;;;;;;;34.13;26.30;;;;;;;5.86;82.53;99541.59;5037292;28;20578;-70
2021/12/04 03:57:31;;;;;;;38.33;27.20;;;;;;;5.81;82.72;99540.69;5037965;28;20428;-71
2021/12/04 03:59:59;;;;;;;37.70;27.03;;;;;;;6.07;81.45;99541.81;5038119;28;20424;-71
2021/12/04 04:02:24;;;;;;;35.27;25.43;;;;;;;5.38;84.61;99536.75;5036591;28;20643;-71
2021/12/04 04:04:50;;;;;;;35.03;27.00;;;;;;;5.78;82.59;99531.16;5018229;28;20422;-70
2021/12/04 04:07:15;;;;;;;37.67;27.37;;;;;;;6.00;82.26;99524.47;5018693;28;20175;-71
2021/12/04 04:09:41;;;;;;;36.23;26.60;;;;;;;5.66;83.22;99524.16;5029738;28;20186;-70
2021/12/04 04:12:06;;;;;;;35.57;26.77;;;;;;;5.69;83.05;99518.13;5037653;28;20201;-69
2021/12/04 04:14:32;;;;;;;35.33;25.50;;;;;;;5.63;83.32;99515.47;5019603;28;20194;-70
2021/12/04 04:16:57;;;;;;;36.37;27.13;;;;;;;5.46;83.76;99511.00;5018068;28;20201;-70
2021/12/04 04:19:24;;;;;;;34.10;25.33;;;;;;;5.47;83.55;99512.75;5026824;28;20192;-72
2021/12/04 04:21:56;;;;;;;38.27;26.30;;;;;;;5.81;83.19;99512.22;5041647;28;20228;-70
2021/12/04 04:24:23;;;;;;;31.50;24.80;;;;;;;5.81;82.38;99510.50;5033537;28;20399;-70
2021/12/04 04:26:48;;;;;;;36.43;24.90;;;;;;;5.91;81.54;99519.19;5041267;28;20500;-71
2021/12/04 04:29:14;;;;;;;37.80;26.20;;;;;;;6.09;81.46;99518.53;5040717;28;20720;-70
2021/12/04 04:31:46;;;;;;;38.50;26.03;;;;;;;5.96;81.10;99512.34;5040508;28;20182;-70
2021/12/04 04:34:12;;;;;;;40.37;25.77;;;;;;;5.84;81.82;99517.41;5040605;28;20492;-70
2021/12/04 04:58:17;;;;;;;31.63;24.83;;;;;;;5.63;81.88;99518.94;5040154;28;20414;-71
2021/12/04 05:01:13;;;;;;;33.70;24.77;;;;;;;5.73;81.09;99523.34;5040104;28;20778;-71
2021/12/04 05:14:33;;;;;;;33.00;22.90;;;;;;;5.18;83.58;99526.22;5038641;28;20464;-71
2021/12/04 05:17:29;;;;;;;31.03;23.63;;;;;;;5.49;83.19;99520.53;5040370;28;20456;-70
2021/12/04 05:19:53;;;;;;;33.43;23.97;;;;;;;5.69;82.17;99519.00;5039022;28;20404;-70
2021/12/04 05:22:19;;;;;;;31.30;23.37;;;;;;;5.71;81.57;99519.00;5040504;28;20670;-71
2021/12/04 05:24:44;;;;;;;34.03;24.53;;;;;;;5.84;80.98;99525.19;5037200;28;20512;-70
2021/12/04 05:27:12;;;;;;;31.60;23.80;;;;;;;5.87;80.76;99526.09;5032309;28;20407;-70
2021/12/04 05:29:37;;;;;;;33.03;24.10;;;;;;;6.04;80.36;99525.38;5039521;28;20170;-71
2021/12/04 05:32:04;;;;;;;32.00;24.70;;;;;;;5.74;81.52;99525.09;5038541;28;20904;-70
2021/12/04 05:34:30;;;;;;;31.40;23.50;;;;;;;5.77;80.79;99520.81;5040222;28;20237;-71
2021/12/04 05:36:55;;;;;;;31.13;22.70;;;;;;;5.89;80.80;99524.34;5020545;28;20837;-70
2021/12/04 05:39:21;;;;;;;28.90;23.07;;;;;;;5.85;80.85;99517.44;5037343;28;20201;-69
2021/12/04 05:41:46;;;;;;;29.97;22.13;;;;;;;5.94;80.52;99520.94;5039708;28;20190;-71
2021/12/04 05:44:14;;;;;;;30.47;22.30;;;;;;;5.96;80.50;99525.28;5037780;28;20228;-69
2021/12/04 05:46:54;;;;;;;27.73;22.30;;;;;;;6.02;80.48;99530.56;5027051;28;20548;-70
2021/12/04 05:49:27;;;;;;;29.10;21.30;;;;;;;5.72;81.78;99534.56;5038571;28;20429;-70
2021/12/04 05:54:31;;;;;;;31.50;23.50;;;;;;;5.60;82.91;99529.25;5038319;28;20469;-70
2021/12/04 05:56:56;;;;;;;32.03;24.10;;;;;;;5.89;81.77;99539.88;5030102;28;20217;-71
2021/12/04 05:59:21;;;;;;;28.10;22.20;;;;;;;5.99;80.08;99532.25;5030767;28;20505;-70
2021/12/04 06:01:47;;;;;;;30.97;22.70;;;;;;;5.94;81.69;99534.75;5025544;28;20178;-69
2021/12/04 06:04:12;;;;;;;32.10;22.90;;;;;;;5.89;80.55;99537.28;5046427;28;20225;-70
2021/12/04 06:06:38;;;;;;;32.73;23.23;;;;;;;5.64;80.98;99538.78;5040049;28;20205;-70
2021/12/04 06:09:04;;;;;;;31.73;23.20;;;;;;;6.03;80.60;99541.75;5033042;28;20186;-69
2021/12/04 06:11:29;;;;;;;31.80;23.40;;;;;;;6.10;80.09;99542.69;5036850;28;20500;-70
2021/12/04 06:13:56;;;;;;;29.80;24.07;;;;;;;5.89;79.94;99550.22;5039097;28;20410;-70
2021/12/04 06:16:21;;;;;;;30.80;24.20;;;;;;;6.08;80.02;99547.84;5017951;28;20178;-71
2021/12/04 06:18:47;;;;;;;14.37;11.83;;;;;;;9.55;86.80;99525.88;5019817;28;20414;-58
2021/12/04 06:24:17;;;;;;;23.13;19.03;;;;;;;9.54;66.63;99521.53;4959460;29;20263;-71
2021/12/04 06:26:42;;;;;;;21.57;18.17;;;;;;;7.50;72.03;99527.91;4959298;29;20510;-70
2021/12/04 06:29:07;;;;;;;24.10;18.20;;;;;;;6.88;74.78;99537.16;4996142;28;20202;-71
2021/12/04 06:31:33;;;;;;;23.70;19.13;;;;;;;6.84;76.07;99532.84;5035586;28;20178;-70
2021/12/04 06:33:58;;;;;;;25.83;19.97;;;;;;;6.52;77.37;99525.72;5033484;28;20447;-70
2021/12/04 06:36:25;;;;;;;27.77;21.27;;;;;;;6.39;77.87;99528.25;5036023;28;20240;-69
2021/12/04 06:38:50;;;;;;;26.50;21.07;;;;;;;6.19;78.41;99543.63;5029444;28;20178;-71
2021/12/04 06:41:16;;;;;;;26.07;20.70;;;;;;;5.88;79.53;99539.88;5034912;28;20414;-69
2021/12/04 06:43:47;;;;;;;24.33;19.83;;;;;;;5.76;80.23;99548.38;5037597;28;20186;-68
2021/12/04 06:46:13;;;;;;;27.30;19.37;;;;;;;5.60;81.06;99536.16;5038470;28;20167;-67
2021/12/04 06:48:44;;;;;;;27.77;19.40;;;;;;;5.54;80.42;99536.94;5039049;28;20420;-69
2021/12/04 06:51:20;;;;;;;29.33;21.07;;;;;;;5.91;79.93;99526.94;5038872;28;20675;-69
2021/12/04 06:53:52;;;;;;;26.83;19.30;;;;;;;5.68;79.74;99530.22;5039158;28;20555;-69
2021/12/04 06:56:19;;;;;;;25.47;18.30;;;;;;;5.08;81.73;99539.88;5040391;28;20412;-70
2021/12/04 06:58:44;;;;;;;22.93;18.50;;;;;;;5.51;80.71;99540.38;5037221;28;20443;-70
2021/12/04 07:01:10;;;;;;;25.60;19.57;;;;;;;5.64;80.17;99531.03;5054151;28;20759;-73
2021/12/04 07:03:37;;;;;;;22.40;18.07;;;;;;;5.66;79.94;99537.06;5034779;28;20252;-69
2021/12/04 07:06:03;;;;;;;23.93;18.40;;;;;;;5.68;80.17;99527.63;5038332;28;20482;-69
2021/12/04 07:08:28;;;;;;;23.00;18.80;;;;;;;5.64;79.71;99524.97;5037938;28;20465;-69
2021/12/04 07:10:53;;;;;;;23.77;18.43;;;;;;;5.35;80.73;99526.41;5038031;28;20401;-68
2021/12/04 07:13:19;;;;;;;22.53;17.80;;;;;;;5.52;80.20;99530.88;5034548;28;20359;-70
2021/12/04 07:15:46;;;;;;;23.17;16.87;;;;;;;5.18;81.14;99533.97;5024700;28;20565;-70
2021/12/04 07:18:12;;;;;;;22.23;18.17;;;;;;;5.29;80.64;99538.38;5031810;28;20225;-67
2021/12/04 07:20:37;;;;;;;22.87;18.73;;;;;;;5.51;79.65;99540.38;5031445;28;20422;-68
2021/12/04 07:23:03;;;;;;;20.93;16.20;;;;;;;5.62;80.42;99537.91;5001710;28;20262;-67
2021/12/04 07:25:28;;;;;;;21.80;17.40;;;;;;;5.59;79.98;99524.94;5018645;28;20175;-68
2021/12/04 07:27:54;;;;;;;25.33;18.20;;;;;;;5.84;79.47;99522.59;5001258;28;20170;-68
2021/12/04 07:30:20;;;;;;;21.10;16.87;;;;;;;5.54;80.13;99524.03;5034855;28;20320;-69
2021/12/04 07:32:46;;;;;;;21.87;17.60;;;;;;;5.65;79.42;99521.56;5038023;28;20284;-69
2021/12/04 07:35:12;;;;;;;24.03;17.67;;;;;;;5.91;78.79;99532.13;5037979;28;20511;-67
2021/12/04 07:37:37;;;;;;;22.00;17.73;;;;;;;5.87;78.66;99533.84;5038195;28;20493;-67
2021/12/04 07:40:03;;;;;;;22.73;18.73;;;;;;;6.07;77.85;99528.88;5038284;28;20174;-67
2021/12/04 07:42:29;;;;;;;22.17;18.53;;;;;;;5.83;79.20;99529.50;5037869;28;20514;-67
2021/12/04 07:44:54;;;;;;;21.50;17.63;;;;;;;5.90;78.86;99538.19;5038598;28;20496;-66
2021/12/04 07:47:20;;;;;;;20.37;17.13;;;;;;;6.28;77.55;99531.59;5038128;28;20265;-68
2021/12/04 07:49:46;;;;;;;24.40;18.20;;;;;;;6.39;77.27;99527.38;5037994;28;20184;-69
2021/12/04 07:52:11;;;;;;;22.30;17.87;;;;;;;6.18;77.66;99521.19;5038458;28;20409;-68
2021/12/04 07:54:37;;;;;;;20.37;16.97;;;;;;;6.21;77.48;99526.38;5038063;28;20232;-68
2021/12/04 07:57:03;;;;;;;18.27;15.50;;;;;;;6.37;76.79;99523.91;5024847;28;20171;-69
2021/12/04 07:59:29;;;;;;;20.93;16.40;;;;;;;6.28;76.59;99523.84;5042933;28;20169;-68
2021/12/04 08:01:55;;;;;;;18.73;16.30;;;;;;;6.12;77.77;99522.88;5041979;28;20662;-69
2021/12/04 08:04:20;;;;;;;19.17;16.03;;;;;;;6.14;77.29;99526.31;5042091;28;20202;-68
2021/12/04 08:06:46;;;;;;;19.20;16.50;;;;;;;6.10;77.29;99529.75;5042578;28;20776;-68
2021/12/04 08:09:11;;;;;;;21.80;17.10;;;;;;;6.13;77.69;99530.66;5024603;28;20176;-68
2021/12/04 08:11:37;;;;;;;20.43;16.80;;;;;;;6.01;77.57;99533.13;5041635;28;20431;-69
2021/12/04 08:14:02;;;;;;;21.17;16.47;;;;;;;6.31;77.00;99527.31;5042207;28;20179;-68
2021/12/04 08:16:28;;;;;;;21.73;16.90;;;;;;;6.32;77.00;99533.34;5024439;28;20174;-69
2021/12/04 08:18:54;;;;;;;20.60;16.67;;;;;;;6.17;77.46;99527.22;5042199;28;20555;-69
2021/12/04 08:21:20;;;;;;;21.10;16.87;;;;;;;6.27;76.99;99535.91;5042179;28;20182;-69
2021/12/04 08:23:46;;;;;;;20.43;16.37;;;;;;;6.36;76.53;99537.69;5041741;28;20603;-68
2021/12/04 08:26:12;;;;;;;21.77;17.60;;;;;;;6.21;77.60;99539.34;5041761;28;20456;-69
2021/12/04 08:28:37;;;;;;;19.70;16.47;;;;;;;6.54;76.59;99553.38;5041900;28;20446;-68
2021/12/04 08:31:02;;;;;;;20.43;16.80;;;;;;;6.34;76.59;99555.81;5041397;28;20417;-68
2021/12/04 08:33:28;;;;;;;21.93;17.13;;;;;;;5.98;77.65;99551.19;5041297;28;20189;-69
2021/12/04 08:35:53;;;;;;;22.70;16.60;;;;;;;5.46;80.44;99552.38;5042278;28;20285;-68
2021/12/04 08:38:18;;;;;;;19.93;15.80;;;;;;;5.45;79.81;99549.78;5045405;28;20197;-70
2021/12/04 08:40:44;;;;;;;18.93;15.70;;;;;;;6.04;78.10;99551.25;5043588;28;20166;-68
2021/12/04 08:43:10;;;;;;;18.30;15.13;;;;;;;5.66;78.84;99544.84;5044004;28;20198;-69
2021/12/04 08:45:36;;;;;;;19.70;15.73;;;;;;;5.93;77.98;99545.97;5043818;28;20182;-69
2021/12/04 08:48:02;;;;;;;20.73;16.47;;;;;;;6.24;77.41;99536.75;5041935;28;20192;-69
2021/12/04 08:50:30;;;;;;;20.37;16.10;;;;;;;6.20;77.37;99547.09;5024800;28;20488;-70
2021/12/04 08:52:57;;;;;;;18.30;15.20;;;;;;;6.02;78.16;99537.44;5041145;28;20417;-68
2021/12/04 08:55:23;;;;;;;17.47;14.23;;;;;;;5.87;78.08;99539.00;5040608;28;20487;-68
2021/12/04 08:57:49;;;;;;;20.33;15.70;;;;;;;6.35;76.86;99539.44;5041283;28;20475;-68
2021/12/04 09:00:27;;;;;;;17.77;13.87;;;;;;;6.16;77.23;99541.00;5040859;28;20421;-70
2021/12/04 09:02:54;;;;;;;16.87;13.07;;;;;;;5.59;78.77;99537.00;5040572;28;20170;-68
2021/12/04 09:05:20;;;;;;;19.43;16.13;;;;;;;5.97;79.30;99533.94;5041332;28;20822;-68
2021/12/04 09:07:46;;;;;;;17.60;14.80;;;;;;;6.46;76.62;99520.53;5040676;28;20718;-68
2021/12/04 09:10:12;;;;;;;17.50;14.70;;;;;;;6.70;75.73;99519.81;5041357;28;20401;-68
2021/12/04 09:12:40;;;;;;;17.43;14.63;;;;;;;6.52;76.13;99523.13;5040688;28;20416;-68
2021/12/04 09:15:07;;;;;;;19.00;15.43;;;;;;;6.63;75.90;99521.50;5040455;28;20878;-69
2021/12/04 09:17:33;;;;;;;17.73;14.33;;;;;;;6.61;75.89;99514.56;5040943;28;20424;-68
2021/12/04 09:19:58;;;;;;;16.33;14.27;;;;;;;6.33;77.52;99523.03;5040413;28;20417;-68
2021/12/04 09:22:26;;;;;;;17.70;14.43;;;;;;;6.17;77.91;99528.94;5040160;28;20442;-68
2021/12/04 09:24:55;;;;;;;19.23;16.00;;;;;;;6.26;76.28;99528.16;5040867;28;20189;-68
2021/12/04 09:30:08;;;;;;;20.37;15.90;;;;;;;5.84;78.26;99533.78;5023783;28;20427;-70
2021/12/04 10:00:07;;;;;;;19.17;15.33;;;;;;;6.13;77.56;99512.53;5039817;28;20445;-69
2021/12/04 10:02:45;;;;;;;17.10;14.40;;;;;;;6.30;77.73;99504.88;5039805;28;20431;-70
2021/12/04 10:32:55;;;;;;;19.97;15.17;;;;;;;5.76;79.43;99475.09;5010884;28;20711;-68
2021/12/04 10:35:22;;;;;;;20.73;14.97;;;;;;;5.70;79.60;99474.19;5038892;28;20456;-68
2021/12/04 10:38:02;;;;;;;20.87;15.77;;;;;;;5.87;78.99;99487.28;5038721;28;20450;-68
2021/12/04 10:40:37;;;;;;;19.33;15.17;;;;;;;6.39;77.72;99471.28;5038807;28;20391;-68
2021/12/04 10:43:05;;;;;;;19.10;14.33;;;;;;;6.11;77.43;99465.06;5038702;28;20390;-68
2021/12/04 10:45:47;;;;;;;23.30;16.20;;;;;;;6.07;77.56;99473.66;5038647;28;20420;-69
2021/12/04 10:48:18;;;;;;;19.00;15.60;;;;;;;5.98;77.93;99464.13;5038681;28;20415;-68
2021/12/04 10:50:59;;;;;;;21.50;14.70;;;;;;;6.05;77.53;99449.50;5038535;28;20498;-68
2021/12/04 10:53:28;;;;;;;19.70;15.50;;;;;;;6.31;77.56;99454.84;5038450;28;20567;-69
2021/12/04 10:56:10;;;;;;;19.40;15.43;;;;;;;6.17;77.41;99451.28;5038734;28;20484;-68
2021/12/04 11:04:06;;;;;;;18.53;15.00;;;;;;;6.30;76.98;99437.59;5038471;28;20394;-69
2021/12/04 11:06:58;;;;;;;17.77;15.17;;;;;;;6.65;75.80;99436.91;5038624;28;20408;-68
2021/12/04 11:34:59;;;;;;;15.87;14.17;;;;;;;6.54;75.47;99425.63;5038169;28;20456;-69
2021/12/04 11:40:01;;;;;;;15.10;12.93;;;;;;;6.19;77.22;99421.13;5038111;28;20511;-68
2021/12/04 11:45:04;;;;;;;17.50;15.27;;;;;;;6.42;76.50;99404.88;5020876;28;20699;-68
2021/12/04 11:47:40;;;;;;;16.67;14.30;;;;;;;6.26;77.18;99397.00;5021871;28;20243;-68
2021/12/04 11:50:24;;;;;;;17.70;14.10;;;;;;;5.61;79.53;99403.44;5021049;28;20405;-69
2021/12/04 11:52:53;;;;;;;20.20;15.83;;;;;;;5.84;78.86;99396.72;5037941;28;20494;-68
2021/12/04 11:55:21;;;;;;;19.77;15.13;;;;;;;5.66;78.82;99407.78;5055022;28;20479;-68
2021/12/04 11:57:48;;;;;;;17.67;15.23;;;;;;;5.83;79.75;99399.28;5057742;28;20466;-68
2021/12/04 12:00:30;;;;;;;21.30;16.23;;;;;;;6.22;78.15;99388.38;5057196;28;20480;-68
2021/12/04 12:03:15;;;;;;;21.20;16.87;;;;;;;6.14;77.81;99396.94;5057877;28;20408;-69
2021/12/04 12:05:55;;;;;;;18.10;14.20;;;;;;;6.31;76.66;99387.56;5057904;28;20394;-68
2021/12/04 12:08:32;;;;;;;17.60;14.97;;;;;;;6.27;76.90;99390.13;5057740;28;20394;-68
2021/12/04 12:11:00;;;;;;;18.43;15.63;;;;;;;6.25;76.25;99392.69;5057949;28;20418;-68
2021/12/04 12:13:32;;;;;;;17.60;14.80;;;;;;;6.14;76.20;99391.78;5057650;28;20403;-68
2021/12/04 12:16:35;;;;;;;16.43;12.67;;;;;;;5.84;77.25;99404.47;5057557;28;20840;-69
2021/12/04 12:19:04;;;;;;;16.60;13.57;;;;;;;6.09;77.36;99401.22;5055629;28;20398;-69
2021/12/04 12:21:52;;;;;;;16.80;14.27;;;;;;;6.03;77.37;99394.28;5057404;28;20391;-69
2021/12/04 12:32:53;;;;;;;13.67;11.30;;;;;;;5.80;77.05;99410.47;5057493;28;20464;-68
2021/12/04 12:36:02;;;;;;;15.10;12.87;;;;;;;5.96;76.23;99403.69;5057435;28;20459;-69
2021/12/04 12:38:39;;;;;;;14.37;12.20;;;;;;;6.20;74.81;99403.03;5057692;28;20757;-68
2021/12/04 12:41:26;;;;;;;14.77;12.93;;;;;;;6.15;75.75;99393.50;5058718;28;20408;-68
2021/12/04 12:43:53;;;;;;;14.40;12.80;;;;;;;6.20;76.06;99386.66;5061330;28;20432;-68
2021/12/04 12:46:19;;;;;;;17.60;12.87;;;;;;;5.74;76.83;99400.09;5061237;28;20396;-69
2021/12/04 12:48:46;;;;;;;15.53;12.97;;;;;;;5.81;77.57;99393.25;5061269;28;20391;-68
2021/12/04 12:51:12;;;;;;;14.90;13.30;;;;;;;6.03;76.50;99399.47;5061628;28;20415;-70
2021/12/04 12:53:46;;;;;;;15.67;13.37;;;;;;;5.97;76.71;99394.25;5059944;28;20705;-70
2021/12/04 12:56:14;;;;;;;14.43;12.20;;;;;;;5.39;77.92;99390.34;5060668;28;20540;-69
2021/12/04 12:58:46;;;;;;;16.73;13.50;;;;;;;5.64;78.12;99380.19;5060829;28;20631;-68
2021/12/04 13:12:46;;;;;;;20.87;14.87;;;;;;;5.40;80.35;99359.34;5061291;28;20481;-69
2021/12/04 13:15:12;;;;;;;21.73;15.70;;;;;;;5.27;80.29;99354.91;5060437;28;20464;-69
2021/12/04 13:17:39;;;;;;;19.30;14.53;;;;;;;5.40;80.30;99346.41;5060528;28;20656;-69
2021/12/04 13:20:05;;;;;;;15.40;13.23;;;;;;;4.98;81.76;99347.78;5060111;28;20825;-69
2021/12/04 13:22:32;;;;;;;16.77;13.30;;;;;;;5.51;79.34;99338.75;5060274;28;20472;-69
2021/12/04 13:25:00;;;;;;;16.07;13.60;;;;;;;5.74;78.35;99331.16;5059726;28;20535;-68
2021/12/04 13:29:57;;;;;;;14.30;12.43;;;;;;;6.35;76.50;99324.59;5060526;28;20387;-68
2021/12/04 13:32:32;;;;;;;14.90;12.50;;;;;;;5.69;78.22;99321.63;5060311;28;20207;-69
2021/12/04 13:35:18;;;;;;;13.73;12.23;;;;;;;5.81;77.85;99318.25;5060022;28;20458;-68
2021/12/04 13:37:44;;;;;;;14.63;12.97;;;;;;;5.61;78.06;99318.97;5060655;28;20432;-69
2021/12/04 13:40:12;;;;;;;15.70;13.23;;;;;;;5.69;78.38;99312.13;5060478;28;20401;-69
2021/12/04 13:42:38;;;;;;;14.33;12.70;;;;;;;5.39;77.32;99313.66;5060586;28;20544;-70
2021/12/04 13:45:13;;;;;;;18.70;15.97;;;;;;;5.12;80.71;99310.88;5061374;28;20487;-68
2021/12/04 13:47:39;;;;;;;17.03;14.90;;;;;;;4.67;82.15;99310.47;5060411;28;20459;-70
2021/12/04 13:50:20;;;;;;;20.60;16.37;;;;;;;5.51;79.96;99306.88;5060153;28;20444;-68
2021/12/04 13:52:46;;;;;;;18.73;16.30;;;;;;;5.53;79.52;99297.38;5060425;28;20412;-68
2021/12/04 13:55:13;;;;;;;17.90;13.90;;;;;;;5.12;81.00;99292.78;5045858;28;20500;-69
2021/12/04 13:57:39;;;;;;;20.90;16.80;;;;;;;5.29;80.92;99291.22;5044486;28;20229;-68
2021/12/04 14:00:06;;;;;;;18.93;16.03;;;;;;;4.96;80.82;99302.97;5043245;28;20380;-68
2021/12/04 14:02:32;;;;;;;20.73;17.10;;;;;;;4.84;82.00;99306.31;5026732;28;20433;-69
2021/12/04 14:05:05;;;;;;;18.90;15.93;;;;;;;5.67;79.34;99295.78;5023185;28;20827;-69
2021/12/04 14:07:31;;;;;;;22.03;16.80;;;;;;;5.18;81.03;99303.16;5039606;28;20393;-68
2021/12/04 14:09:56;;;;;;;23.63;16.90;;;;;;;5.21;81.78;99303.19;5039944;28;20433;-68
2021/12/04 14:12:22;;;;;;;19.97;16.33;;;;;;;5.57;79.37;99301.72;5039290;28;20426;-68
2021/12/04 14:14:47;;;;;;;22.43;17.00;;;;;;;5.25;80.65;99306.66;5039424;28;20535;-68
2021/12/04 14:17:15;;;;;;;19.90;15.83;;;;;;;5.19;81.19;99304.91;5039722;28;20216;-69
2021/12/04 14:19:41;;;;;;;17.87;15.63;;;;;;;5.66;79.26;99294.03;5039182;28;20174;-68